createdAt,value
2018-08-06T00:00:26.071Z,21.68
2018-08-06T00:02:54.648Z,21.64
2018-08-06T00:05:23.361Z,21.56
2018-08-06T00:07:53.004Z,21.56
2018-08-06T00:10:24.768Z,21.48
2018-08-06T00:12:54.832Z,21.44
2018-08-06T00:15:23.641Z,21.43
2018-08-06T00:17:52.128Z,21.41
2018-08-06T00:20:20.794Z,21.36
2018-08-06T00:22:49.523Z,21.22
2018-08-06T00:25:18.878Z,21.18
2018-08-06T00:27:47.698Z,21.09
2018-08-06T00:30:17.907Z,21.02
2018-08-06T00:32:47.560Z,20.98
2018-08-06T00:35:16.612Z,20.91
2018-08-06T00:37:46.247Z,20.94
2018-08-06T00:40:16.798Z,20.91
2018-08-06T00:42:47.527Z,20.91
2018-08-06T00:45:18.238Z,20.91
2018-08-06T00:47:47.372Z,20.94
2018-08-06T00:50:15.925Z,20.90
2018-08-06T00:52:44.524Z,20.91
2018-08-06T00:55:17.046Z,20.87
2018-08-06T00:57:47.912Z,20.85
2018-08-06T01:00:18.472Z,20.79
2018-08-06T01:02:48.056Z,20.78
2018-08-06T01:05:16.938Z,20.76
2018-08-06T01:07:45.869Z,20.78
2018-08-06T01:10:15.587Z,20.73
2018-08-06T01:12:44.081Z,20.70
2018-08-06T01:15:17.274Z,20.61
2018-08-06T01:17:46.086Z,20.62
2018-08-06T01:20:14.996Z,20.57
2018-08-06T01:22:44.921Z,20.48
2018-08-06T01:25:14.068Z,20.45
2018-08-06T01:27:42.639Z,20.37
2018-08-06T01:30:12.653Z,20.40
2018-08-06T01:32:41.760Z,20.43
2018-08-06T01:35:10.909Z,20.40
2018-08-06T01:37:39.409Z,20.39
2018-08-06T01:40:13.203Z,20.33
2018-08-06T01:42:42.442Z,20.33
2018-08-06T01:45:12.683Z,20.36
2018-08-06T01:47:41.190Z,20.40
2018-08-06T01:50:11.689Z,20.46
2018-08-06T01:52:40.565Z,20.48
2018-08-06T01:55:09.131Z,20.49
2018-08-06T01:57:38.241Z,20.52
2018-08-06T02:00:11.758Z,20.53
2018-08-06T02:02:40.256Z,20.52
2018-08-06T02:05:09.300Z,20.46
2018-08-06T02:07:38.916Z,20.34
2018-08-06T02:10:10.837Z,20.28
2018-08-06T02:12:39.551Z,20.22
2018-08-06T02:15:09.149Z,20.23
2018-08-06T02:17:37.885Z,20.18
2018-08-06T02:20:07.828Z,20.08
2018-08-06T02:22:36.740Z,20.05
2018-08-06T02:25:06.885Z,20.04
2018-08-06T02:27:35.870Z,20.02
2018-08-06T02:30:06.560Z,19.97
2018-08-06T02:32:35.073Z,19.95
2018-08-06T02:35:04.068Z,19.95
2018-08-06T02:37:32.825Z,19.95
2018-08-06T02:40:01.745Z,19.98
2018-08-06T02:42:30.457Z,19.95
2018-08-06T02:44:59.261Z,19.93
2018-08-06T02:47:27.765Z,19.95
2018-08-06T02:49:56.584Z,19.94
2018-08-06T02:52:25.987Z,19.93
2018-08-06T02:54:55.536Z,19.85
2018-08-06T02:57:24.055Z,19.78
2018-08-06T02:59:52.599Z,19.69
2018-08-06T03:02:21.150Z,19.61
2018-08-06T03:04:49.908Z,19.56
2018-08-06T03:07:18.623Z,19.53
2018-08-06T03:09:47.170Z,19.52
2018-08-06T03:12:16.788Z,19.50
2018-08-06T03:14:45.239Z,19.39
2018-08-06T03:17:13.729Z,19.35
2018-08-06T03:19:43.136Z,19.31
2018-08-06T03:22:11.889Z,19.34
2018-08-06T03:24:40.546Z,19.31
2018-08-06T03:27:09.401Z,19.30
2018-08-06T03:29:38.595Z,19.28
2018-08-06T03:32:08.223Z,19.36
2018-08-06T03:34:36.837Z,19.46
2018-08-06T03:37:05.327Z,19.54
2018-08-06T03:39:33.889Z,19.58
2018-08-06T03:42:02.329Z,19.63
2018-08-06T03:44:30.764Z,19.64
2018-08-06T03:46:59.248Z,19.63
2018-08-06T03:49:27.904Z,19.57
2018-08-06T03:51:56.847Z,19.43
2018-08-06T03:54:26.716Z,19.35
2018-08-06T03:56:55.304Z,19.25
2018-08-06T03:59:23.917Z,19.18
2018-08-06T04:01:52.430Z,19.13
2018-08-06T04:04:20.969Z,19.11
2018-08-06T04:06:49.763Z,19.09
2018-08-06T04:09:18.616Z,19.09
2018-08-06T04:11:47.088Z,19.04
2018-08-06T04:14:16.832Z,18.98
2018-08-06T04:16:46.048Z,18.98
2018-08-06T04:19:15.011Z,18.98
2018-08-06T04:21:44.859Z,18.96
2018-08-06T04:24:14.448Z,19.00
2018-08-06T04:26:43.418Z,19.02
2018-08-06T04:29:13.284Z,19.12
2018-08-06T04:31:42.059Z,19.10
2018-08-06T04:34:10.685Z,19.03
2018-08-06T04:36:39.402Z,18.93
2018-08-06T04:39:08.034Z,18.95
2018-08-06T04:41:36.552Z,18.93
2018-08-06T04:44:06.008Z,18.98
2018-08-06T04:46:34.500Z,18.98
2018-08-06T04:49:06.026Z,19.01
2018-08-06T04:51:34.473Z,19.05
2018-08-06T04:54:03.624Z,19.11
2018-08-06T04:56:32.452Z,19.21
2018-08-06T04:59:00.996Z,19.24
2018-08-06T05:01:30.681Z,19.08
2018-08-06T05:03:59.200Z,19.03
2018-08-06T05:06:27.811Z,19.10
2018-08-06T05:08:56.290Z,19.24
2018-08-06T05:11:25.134Z,19.29
2018-08-06T05:13:54.121Z,19.45
2018-08-06T05:16:22.616Z,19.47
2018-08-06T05:18:52.182Z,19.50
2018-08-06T05:21:20.763Z,19.51
2018-08-06T05:23:54.819Z,19.42
2018-08-06T05:26:23.817Z,19.35
2018-08-06T05:28:53.075Z,19.20
2018-08-06T05:31:23.340Z,19.15
2018-08-06T05:33:51.917Z,19.12
2018-08-06T05:36:31.165Z,19.19
2018-08-06T05:38:59.897Z,19.26
2018-08-06T05:41:28.304Z,19.24
2018-08-06T05:43:57.095Z,19.24
2018-08-06T05:46:25.761Z,19.26
2018-08-06T05:48:54.586Z,19.21
2018-08-06T05:51:23.106Z,19.26
2018-08-06T05:53:51.653Z,19.32
2018-08-06T05:56:20.344Z,19.31
2018-08-06T05:58:50.746Z,19.37
2018-08-06T06:01:19.312Z,19.41
2018-08-06T06:03:48.471Z,19.53
2018-08-06T06:06:17.159Z,19.65
2018-08-06T06:08:45.668Z,19.77
2018-08-06T06:11:15.833Z,19.81
2018-08-06T06:13:47.042Z,19.76
2018-08-06T06:16:16.141Z,19.93
2018-08-06T06:18:44.693Z,20.03
2018-08-06T06:21:16.272Z,20.12
2018-08-06T06:23:44.889Z,20.17
2018-08-06T06:26:13.716Z,20.25
2018-08-06T06:28:43.407Z,20.42
2018-08-06T06:31:11.973Z,20.58
2018-08-06T06:33:41.526Z,20.64
2018-08-06T06:36:10.109Z,20.73
2018-08-06T06:38:38.745Z,20.57
2018-08-06T06:41:07.357Z,20.65
2018-08-06T06:43:35.965Z,20.70
2018-08-06T06:46:04.851Z,20.68
2018-08-06T06:48:33.316Z,20.80
2018-08-06T06:51:01.922Z,20.91
2018-08-06T06:53:30.590Z,20.85
2018-08-06T06:55:59.146Z,20.93
2018-08-06T06:58:27.757Z,21.05
2018-08-06T07:00:57.350Z,21.20
2018-08-06T07:03:27.278Z,21.30
2018-08-06T07:05:56.061Z,21.34
2018-08-06T07:08:24.607Z,21.31
2018-08-06T07:10:53.521Z,21.31
2018-08-06T07:13:22.603Z,21.47
2018-08-06T07:15:52.148Z,21.64
2018-08-06T07:18:20.688Z,21.81
2018-08-06T07:20:50.389Z,21.88
2018-08-06T07:23:18.949Z,21.91
2018-08-06T07:25:47.485Z,21.82
2018-08-06T07:28:17.502Z,21.72
2018-08-06T07:30:46.201Z,21.76
2018-08-06T07:33:16.016Z,21.84
2018-08-06T07:35:45.542Z,21.90
2018-08-06T07:38:14.015Z,21.88
2018-08-06T07:40:42.578Z,21.89
2018-08-06T07:43:11.192Z,21.92
2018-08-06T07:45:39.753Z,21.96
2018-08-06T07:48:08.988Z,22.06
2018-08-06T07:50:37.754Z,22.11
2018-08-06T07:53:06.993Z,22.18
2018-08-06T07:55:35.493Z,22.22
2018-08-06T07:58:04.105Z,22.30
2018-08-06T08:00:32.766Z,22.34
2018-08-06T08:03:02.179Z,22.42
2018-08-06T08:05:30.887Z,22.48
2018-08-06T08:07:59.557Z,22.54
2018-08-06T08:10:28.838Z,22.58
2018-08-06T08:12:58.325Z,22.65
2018-08-06T08:15:27.172Z,22.64
2018-08-06T08:17:57.989Z,22.66
2018-08-06T08:20:27.345Z,22.73
2018-08-06T08:22:56.129Z,22.82
2018-08-06T08:25:24.735Z,22.92
2018-08-06T08:27:53.259Z,23.01
2018-08-06T08:30:21.848Z,23.09
2018-08-06T08:32:50.750Z,23.17
2018-08-06T08:35:20.193Z,23.24
2018-08-06T08:37:48.762Z,23.29
2018-08-06T08:40:18.825Z,23.38
2018-08-06T08:42:47.319Z,23.45
2018-08-06T08:45:17.153Z,23.49
2018-08-06T08:47:46.735Z,23.56
2018-08-06T08:50:17.160Z,23.62
2018-08-06T08:52:46.812Z,23.65
2018-08-06T08:55:16.677Z,23.72
2018-08-06T08:57:46.370Z,23.77
2018-08-06T09:00:18.402Z,23.84
2018-08-06T09:02:48.161Z,23.91
2018-08-06T09:05:17.713Z,23.97
2018-08-06T09:07:46.925Z,24.02
2018-08-06T09:10:16.578Z,24.06
2018-08-06T09:12:45.293Z,24.11
2018-08-06T09:15:18.245Z,24.14
2018-08-06T09:17:47.757Z,24.24
2018-08-06T09:20:16.368Z,24.33
2018-08-06T09:22:45.707Z,24.42
2018-08-06T09:25:14.598Z,24.54
2018-08-06T09:27:45.579Z,24.63
2018-08-06T09:30:16.308Z,24.69
2018-08-06T09:32:45.979Z,24.67
2018-08-06T09:35:15.293Z,24.73
2018-08-06T09:37:43.913Z,24.70
2018-08-06T09:40:14.643Z,24.83
2018-08-06T09:42:44.094Z,24.88
2018-08-06T09:45:13.985Z,24.94
2018-08-06T09:47:44.165Z,25.04
2018-08-06T09:50:13.423Z,25.16
2018-08-06T09:52:42.795Z,25.19
2018-08-06T09:55:17.640Z,25.27
2018-08-06T09:57:46.499Z,25.37
2018-08-06T10:00:22.366Z,25.50
2018-08-06T10:02:52.455Z,25.61
2018-08-06T10:05:22.110Z,25.73
2018-08-06T10:07:50.821Z,25.84
2018-08-06T10:10:19.454Z,25.94
2018-08-06T10:12:48.773Z,26.03
2018-08-06T10:15:17.835Z,26.05
2018-08-06T10:17:47.642Z,26.11
2018-08-06T10:20:18.572Z,26.23
2018-08-06T10:22:47.182Z,26.36
2018-08-06T10:25:16.213Z,26.52
2018-08-06T10:27:45.751Z,26.63
2018-08-06T10:30:16.612Z,26.73
2018-08-06T10:32:45.542Z,26.77
2018-08-06T10:35:15.092Z,26.79
2018-08-06T10:37:44.281Z,26.89
2018-08-06T10:40:19.791Z,26.92
2018-08-06T10:42:48.732Z,26.96
2018-08-06T10:45:19.456Z,26.97
2018-08-06T10:47:48.300Z,27.01
2018-08-06T10:50:17.057Z,27.06
2018-08-06T10:52:46.430Z,27.12
2018-08-06T10:55:15.333Z,27.12
2018-08-06T10:57:46.652Z,27.14
2018-08-06T11:00:17.499Z,27.16
2018-08-06T11:02:46.918Z,27.22
2018-08-06T11:05:16.447Z,27.31
2018-08-06T11:07:45.051Z,27.37
2018-08-06T11:10:16.021Z,27.42
2018-08-06T11:12:45.454Z,27.48
2018-08-06T11:15:19.561Z,27.63
2018-08-06T11:17:49.045Z,27.76
2018-08-06T11:20:18.366Z,27.89
2018-08-06T11:22:47.049Z,28.12
2018-08-06T11:25:20.421Z,28.27
2018-08-06T11:27:49.159Z,28.31
2018-08-06T11:30:20.450Z,28.46
2018-08-06T11:32:50.682Z,28.60
2018-08-06T11:35:19.452Z,28.67
2018-08-06T11:37:48.333Z,28.65
2018-08-06T11:40:17.692Z,28.57
2018-08-06T11:42:47.625Z,28.57
2018-08-06T11:45:18.745Z,28.62
2018-08-06T11:47:47.912Z,28.75
2018-08-06T11:50:17.276Z,28.90
2018-08-06T11:52:45.989Z,29.04
2018-08-06T11:55:14.922Z,29.09
2018-08-06T11:57:43.576Z,29.13
2018-08-06T12:00:20.350Z,29.14
2018-08-06T12:02:48.912Z,29.24
2018-08-06T12:05:17.802Z,29.32
2018-08-06T12:07:46.328Z,29.46
2018-08-06T12:10:16.493Z,29.58
2018-08-06T12:12:45.864Z,29.61
2018-08-06T12:15:15.573Z,29.69
2018-08-06T12:17:44.444Z,29.76
2018-08-06T12:20:16.791Z,29.89
2018-08-06T12:22:46.628Z,29.92
2018-08-06T12:25:16.719Z,29.98
2018-08-06T12:27:45.946Z,30.06
2018-08-06T12:30:19.441Z,30.10
2018-08-06T12:32:48.702Z,30.12
2018-08-06T12:35:17.930Z,30.22
2018-08-06T12:37:48.480Z,30.30
2018-08-06T12:40:18.942Z,30.42
2018-08-06T12:42:48.088Z,30.41
2018-08-06T12:45:18.162Z,30.46
2018-08-06T12:47:47.912Z,30.54
2018-08-06T12:50:17.238Z,30.48
2018-08-06T12:52:46.182Z,30.49
2018-08-06T12:55:16.620Z,30.63
2018-08-06T12:57:45.518Z,30.76
2018-08-06T13:00:20.478Z,30.90
2018-08-06T13:02:50.226Z,31.00
2018-08-06T13:05:20.232Z,31.15
2018-08-06T13:07:48.861Z,31.20
2018-08-06T13:10:17.993Z,31.23
2018-08-06T13:12:46.737Z,31.29
2018-08-06T13:15:17.370Z,31.28
2018-08-06T13:17:46.112Z,31.37
2018-08-06T13:20:14.787Z,31.47
2018-08-06T13:22:43.661Z,31.53
2018-08-06T13:25:13.044Z,31.64
2018-08-06T13:27:41.516Z,31.75
2018-08-06T13:30:13.040Z,31.85
2018-08-06T13:32:42.001Z,31.95
2018-08-06T13:35:10.877Z,32.06
2018-08-06T13:37:39.976Z,32.17
2018-08-06T13:40:09.845Z,32.24
2018-08-06T13:42:39.869Z,32.36
2018-08-06T13:45:10.588Z,32.36
2018-08-06T13:47:39.144Z,32.49
2018-08-06T13:50:08.146Z,32.48
2018-08-06T13:52:36.847Z,32.40
2018-08-06T13:55:07.206Z,32.45
2018-08-06T13:57:36.696Z,32.52
2018-08-06T14:00:09.198Z,32.56
2018-08-06T14:02:37.775Z,32.66
2018-08-06T14:05:07.454Z,32.83
2018-08-06T14:07:36.176Z,32.95
2018-08-06T14:10:05.590Z,32.94
2018-08-06T14:12:34.013Z,32.98
2018-08-06T14:15:02.552Z,33.07
2018-08-06T14:17:31.057Z,33.18
2018-08-06T14:20:00.146Z,33.25
2018-08-06T14:22:28.903Z,33.32
2018-08-06T14:24:57.494Z,33.24
2018-08-06T14:27:26.153Z,33.36
2018-08-06T14:29:54.723Z,33.26
2018-08-06T14:32:24.172Z,33.31
2018-08-06T14:34:53.296Z,33.35
2018-08-06T14:37:21.869Z,33.42
2018-08-06T14:39:50.375Z,33.59
2018-08-06T14:42:20.096Z,33.60
2018-08-06T14:44:48.800Z,33.59
2018-08-06T14:47:17.320Z,33.66
2018-08-06T14:49:45.870Z,33.77
2018-08-06T14:52:15.739Z,33.93
2018-08-06T14:54:44.266Z,34.08
2018-08-06T14:57:12.736Z,34.11
2018-08-06T14:59:41.865Z,34.22
2018-08-06T15:02:10.411Z,34.26
2018-08-06T15:04:39.042Z,34.38
2018-08-06T15:07:09.539Z,34.33
2018-08-06T15:09:38.023Z,34.15
2018-08-06T15:12:10.513Z,33.93
2018-08-06T15:14:38.984Z,33.97
2018-08-06T15:17:08.592Z,34.03
2018-08-06T15:19:37.089Z,34.19
2018-08-06T15:22:05.729Z,34.30
2018-08-06T15:24:34.199Z,34.32
2018-08-06T15:27:03.363Z,34.42
2018-08-06T15:29:31.887Z,34.28
2018-08-06T15:32:01.667Z,34.18
2018-08-06T15:34:31.922Z,34.31
2018-08-06T15:37:00.446Z,34.36
2018-08-06T15:39:29.146Z,34.47
2018-08-06T15:41:57.693Z,34.54
2018-08-06T15:44:26.347Z,34.57
2018-08-06T15:46:54.939Z,34.89
2018-08-06T15:49:23.553Z,35.10
2018-08-06T15:51:52.987Z,35.37
2018-08-06T15:54:21.571Z,35.56
2018-08-06T15:57:52.787Z,35.79
2018-08-06T16:00:22.180Z,35.76
2018-08-06T16:02:50.765Z,35.53
2018-08-06T16:05:19.537Z,35.53
2018-08-06T16:07:48.903Z,35.43
2018-08-06T16:10:17.833Z,35.56
2018-08-06T16:12:46.421Z,35.56
2018-08-06T16:15:15.940Z,35.55
2018-08-06T16:17:45.050Z,35.16
2018-08-06T16:20:14.835Z,34.86
2018-08-06T16:22:43.506Z,34.83
2018-08-06T16:25:12.701Z,34.89
2018-08-06T16:27:41.301Z,34.87
2018-08-06T16:30:16.648Z,34.73
2018-08-06T16:32:46.072Z,34.56
2018-08-06T16:35:15.267Z,34.30
2018-08-06T16:37:43.941Z,34.09
2018-08-06T16:40:13.620Z,34.00
2018-08-06T16:42:42.531Z,33.88
2018-08-06T16:45:12.390Z,33.83
2018-08-06T16:47:40.942Z,33.84
2018-08-06T16:50:13.480Z,33.67
2018-08-06T16:52:42.276Z,33.56
2018-08-06T16:55:11.255Z,33.48
2018-08-06T16:57:41.179Z,33.16
2018-08-06T17:00:14.141Z,33.04
2018-08-06T17:02:42.787Z,32.85
2018-08-06T17:05:12.718Z,32.75
2018-08-06T17:07:52.535Z,32.64
2018-08-06T17:10:21.884Z,32.52
2018-08-06T17:12:53.078Z,32.34
2018-08-06T17:15:22.505Z,32.11
2018-08-06T17:17:53.293Z,31.89
2018-08-06T17:20:23.463Z,31.71
2018-08-06T17:22:52.451Z,31.52
2018-08-06T17:26:50.261Z,31.32
2018-08-06T17:29:18.967Z,31.07
2018-08-06T17:31:47.471Z,30.86
2018-08-06T17:34:16.687Z,30.72
2018-08-06T17:36:46.462Z,30.56
2018-08-06T17:39:15.346Z,30.43
2018-08-06T17:41:43.985Z,30.32
2018-08-06T17:44:12.583Z,30.18
2018-08-06T17:46:42.013Z,30.11
2018-08-06T17:49:10.527Z,30.01
2018-08-06T17:51:39.189Z,29.93
2018-08-06T17:54:08.519Z,29.83
2018-08-06T17:56:37.409Z,29.79
2018-08-06T17:59:06.240Z,29.72
2018-08-06T18:01:34.982Z,29.65
2018-08-06T18:04:03.586Z,29.60
2018-08-06T18:06:32.125Z,29.51
2018-08-06T18:09:00.819Z,29.46
2018-08-06T18:11:29.214Z,29.43
2018-08-06T18:13:57.790Z,29.37
2018-08-06T18:16:26.377Z,29.34
2018-08-06T18:18:54.984Z,29.29
2018-08-06T18:21:23.618Z,29.19
2018-08-06T18:23:52.098Z,29.13
2018-08-06T18:26:20.562Z,29.10
2018-08-06T18:28:49.095Z,29.05
2018-08-06T18:31:18.193Z,28.95
2018-08-06T18:33:50.280Z,28.90
2018-08-06T18:36:19.183Z,28.84
2018-08-06T18:38:47.945Z,28.75
2018-08-06T18:41:16.383Z,28.67
2018-08-06T18:43:45.032Z,28.62
2018-08-06T18:46:14.321Z,28.55
2018-08-06T18:48:43.562Z,28.49
2018-08-06T18:51:12.277Z,28.40
2018-08-06T18:53:40.835Z,28.36
2018-08-06T18:56:09.985Z,28.27
2018-08-06T18:58:38.557Z,28.21
2018-08-06T19:01:07.799Z,28.13
2018-08-06T19:03:36.404Z,28.08
2018-08-06T19:06:04.877Z,28.03
2018-08-06T19:08:35.050Z,27.95
2018-08-06T19:11:03.561Z,27.88
2018-08-06T19:13:39.719Z,27.83
2018-08-06T19:16:09.497Z,27.78
2018-08-06T19:18:43.240Z,27.73
2018-08-06T19:21:11.831Z,27.65
2018-08-06T19:23:40.463Z,27.56
2018-08-06T19:26:09.153Z,27.51
2018-08-06T19:28:38.232Z,27.49
2018-08-06T19:31:11.994Z,27.40
2018-08-06T19:33:40.549Z,27.36
2018-08-06T19:36:09.539Z,27.28
2018-08-06T19:38:38.173Z,27.21
2018-08-06T19:41:06.947Z,27.18
2018-08-06T19:43:38.569Z,27.13
2018-08-06T19:46:07.889Z,27.09
2018-08-06T19:48:36.448Z,27.04
2018-08-06T19:51:05.249Z,27.02
2018-08-06T19:53:34.171Z,26.94
2018-08-06T19:56:08.001Z,26.87
2018-08-06T19:58:36.909Z,26.79
2018-08-06T20:01:05.541Z,26.76
2018-08-06T20:03:34.252Z,26.71
2018-08-06T20:06:02.791Z,26.68
2018-08-06T20:08:32.124Z,26.62
2018-08-06T20:11:00.716Z,26.58
2018-08-06T20:13:29.422Z,26.54
2018-08-06T20:15:57.994Z,26.50
2018-08-06T20:18:28.048Z,26.45
2018-08-06T20:20:57.181Z,26.40
2018-08-06T20:23:25.835Z,26.37
2018-08-06T20:25:54.565Z,26.29
2018-08-06T20:28:23.233Z,26.24
2018-08-06T20:30:51.705Z,26.18
2018-08-06T20:33:20.279Z,26.13
2018-08-06T20:35:49.634Z,26.09
2018-08-06T20:38:18.179Z,26.06
2018-08-06T20:40:46.781Z,25.98
2018-08-06T20:43:15.498Z,25.93
2018-08-06T20:45:44.108Z,25.88
2018-08-06T20:48:13.351Z,25.82
2018-08-06T20:50:42.018Z,25.79
2018-08-06T20:53:11.332Z,25.74
2018-08-06T20:55:40.057Z,25.71
2018-08-06T20:58:08.654Z,25.68
2018-08-06T21:00:38.163Z,25.66
2018-08-06T21:03:07.308Z,25.57
2018-08-06T21:05:36.073Z,25.53
2018-08-06T21:08:04.690Z,25.47
2018-08-06T21:10:33.260Z,25.46
2018-08-06T21:13:01.925Z,25.42
2018-08-06T21:15:30.445Z,25.40
2018-08-06T21:17:59.013Z,25.41
2018-08-06T21:20:28.124Z,25.36
2018-08-06T21:22:56.648Z,25.28
2018-08-06T21:25:25.166Z,25.28
2018-08-06T21:27:54.650Z,25.24
2018-08-06T21:30:23.444Z,25.19
2018-08-06T21:32:56.965Z,25.19
2018-08-06T21:35:26.814Z,25.17
2018-08-06T21:37:56.603Z,25.12
2018-08-06T21:40:26.451Z,25.13
2018-08-06T21:42:54.978Z,25.09
2018-08-06T21:45:23.663Z,25.04
2018-08-06T21:47:52.291Z,25.01
2018-08-06T21:50:20.826Z,24.95
2018-08-06T21:52:49.954Z,24.89
2018-08-06T21:55:19.413Z,24.85
2018-08-06T21:57:49.872Z,24.84
2018-08-06T22:00:29.512Z,24.81
2018-08-06T22:02:58.015Z,24.76
2018-08-06T22:05:26.582Z,24.69
2018-08-06T22:07:55.664Z,24.67
2018-08-06T22:10:24.751Z,24.65
2018-08-06T22:12:53.314Z,24.62
2018-08-06T22:15:24.052Z,24.57
2018-08-06T22:17:52.765Z,24.51
2018-08-06T22:20:21.389Z,24.49
2018-08-06T22:22:50.728Z,24.47
2018-08-06T22:25:19.885Z,24.48
2018-08-06T22:27:49.180Z,24.47
2018-08-06T22:30:19.304Z,24.44
2018-08-06T22:32:48.098Z,24.40
2018-08-06T22:35:17.441Z,24.34
2018-08-06T22:37:46.579Z,24.37
2018-08-06T22:40:15.406Z,24.30
2018-08-06T22:42:43.924Z,24.27
2018-08-06T22:45:13.417Z,24.21
2018-08-06T22:47:43.006Z,24.22
2018-08-06T22:50:12.983Z,24.16
2018-08-06T22:52:42.546Z,24.13
2018-08-06T22:55:12.699Z,24.13
2018-08-06T22:57:42.655Z,24.07
2018-08-06T23:00:13.263Z,24.03
2018-08-06T23:02:42.132Z,24.01
2018-08-06T23:05:11.663Z,23.98
2018-08-06T23:07:41.813Z,23.98
2018-08-06T23:10:13.565Z,23.94
2018-08-06T23:12:42.295Z,23.94
2018-08-06T23:15:13.600Z,23.89
2018-08-06T23:17:43.594Z,23.84
2018-08-06T23:20:13.361Z,23.80
2018-08-06T23:22:42.206Z,23.78
2018-08-06T23:25:11.832Z,23.75
2018-08-06T23:27:40.422Z,23.74
2018-08-06T23:30:13.423Z,23.66
2018-08-06T23:32:42.649Z,23.65
2018-08-06T23:35:12.453Z,23.62
2018-08-06T23:37:42.223Z,23.58
2018-08-06T23:40:12.849Z,23.54
2018-08-06T23:42:41.896Z,23.51
2018-08-06T23:45:12.065Z,23.48
2018-08-06T23:47:41.303Z,23.41
2018-08-06T23:50:11.598Z,23.38
2018-08-06T23:52:42.427Z,23.34
2018-08-06T23:55:12.161Z,23.34
2018-08-06T23:57:41.336Z,23.30
